Sultan Abdul Halim Airport
WMKA : now visible

Airfield :











YOU CAN JOIN US ON...

 
LOGIN :

Register | Disclaimer

   EN    FR    IT 

 









Legend :    VFR   Marginal VFR   IFR   Intensive IFR   Very Intensive IFR
Visi :
Ceiling :
>= 8 km
>= 3000ft
5 to 8 km
1000 to 3000 ft
1500m to 5 km
500 to 1000 ft
800 to 1500m
200 to 500 ft
< 800m
< 200 ft
Symbols :   Thunderstorms  Fog  Heavy snow  Heavy precipitations  Wind > 20 kt






- Airport Elevation : 15 ft
- IATA code : AOR


WMKA - Sultan Abdul Halim

CURRENT METAR :
  • 010500Z VRB03KT 9999 FEW020 34/26 Q1009

EXPIRED METARs :
  • 010400Z VRB02KT 9999 FEW020 33/26 Q1010
  • 010300Z VRB01KT 9999 FEW020 32/27 Q1011

TAF TAF WMKA
Valid from the 01 at 00:00 until the 02 at 00:00 UTC


312300Z 0100/0200 VRB03KT 9999 FEW020
BECMG 0106/0108 25008KT FEW017CB
TEMPO 0108/0112 5000 TSRA FEW010 FEW017CB
BECMG 0110/0112 VRB03KT FEW028



MET'MAP, your aeronautical weather chart ! - Copyright ORBIFLY December 2007 - Disclaimer

ORBIFLY MET'MAP TEAM :

Programming & Development : Alexandra Zaïnal
Concept & original design : Baudouin d'Aumeries
Assistance for programming : Marc-Olivier Méhu
Technical & hardware support : Manuel Goepfert

Contact : metmap@orbifly.com




SOURCES & CREDITS :

   NOAA       Earth
Advisory